• Join FlightAware (Why Join?)
  • Login
  • US Flag 
12:33AM EDT


 

Airport Tracker/Info


-or-


 

Live Flight TrackerFlight Track Log ✈ UAL247 ✈ 10-Jul-2013 ✈ KRSW - KCLE

Flight Track Log - Related Links

Times and Time Zones

All times are in EDT time to prevent confusion due to time zone crossing. See the UAL247 flight status page for this flight to view local times or setup timezone preferences in your user account.

Time Position Orientation Groundspeed Altitude Reporting Facility
EDT Latitude Longitude Course Direction KTS MPH feet Rate Location/Type
11:19AM 26.6183 -81.6989 344° North 227 261 3,200  Level Miami Center
11:20AM 26.8866 -81.7333 North  Level FlightAware Approximate
11:20AM 26.6836 -81.6783 16° North 274 315 5,600  Level Miami Center
11:21AM 27.0047 -81.7333 North  Level FlightAware Approximate
11:21AM 26.7408 -81.6550 20° North 284 327 7,700  Level Miami Center
11:22AM 27.1171 -81.7723 343° North  Level FlightAware Approximate
11:22AM 26.8219 -81.6678 352° North 277 319 9,900  Level Miami Center
11:23AM 27.2304 -81.8101 343° North  Level FlightAware Approximate
11:23AM 26.9167 -81.7064 340° North 308 354 11,800  Level Miami Center
11:24AM 27.3422 -81.8530 344° North  Level FlightAware Approximate
11:24AM 27.0114 -81.7408 342° North 347 399 14,100  Level Miami Center
11:25AM 27.1083 -81.7728 344° North 354 407 16,100 1,980 Climbing Miami Center
11:26AM 27.2075 -81.8050 344° North 359 413 18,100 1,920 Climbing Miami Center
11:27AM 27.3086 -81.8397 343° North 374 430 20,000 1,620 Climbing Miami Center
11:28AM 27.4117 -81.8769 342° North 386 444 21,400 1,380 Climbing Miami Center
11:29AM 27.5108 -81.9094 344° North 392 451 22,800 1,500 Climbing Miami Center
11:30AM 27.6322 -81.9544 342° North 403 464 24,400 1,200 Climbing Miami Center
11:32AM 27.8361 -82.0125 346° North 430 495 26,200 1,020 Climbing Jacksonville Center
11:33AM 27.9550 -82.0161 358° North 430 495 27,300 1,020 Climbing Jacksonville Center
11:34AM 28.0639 -82.0789 333° Northwest 422 486 28,300 660 Climbing Jacksonville Center
11:35AM 28.1706 -82.1392 334° Northwest 443 510 28,700 540 Climbing Jacksonville Center
11:36AM 28.3086 -82.1900 342° North 460 529 29,400 900 Climbing Jacksonville Center
11:37AM 28.4258 -82.2317 343° North 478 550 30,500 1,080 Climbing Jacksonville Center
11:38AM 28.5533 -82.2806 341° North 483 556 31,600 660 Climbing Jacksonville Center
11:39AM 28.6808 -82.3294 341° North 483 556 31,900 120 Climbing Jacksonville Center
11:40AM 28.8019 -82.3714 343° North 477 549 31,900  Level Jacksonville Center
11:41AM 28.9294 -82.4181 342° North 477 549 31,900  Level Jacksonville Center
11:42AM 29.0508 -82.4650 341° North 472 543 31,900  Level Jacksonville Center
11:43AM 29.1761 -82.5119 342° North 472 543 31,900  Level Jacksonville Center
11:44AM 29.3058 -82.5617 342° North 472 543 31,900  Level Jacksonville Center
11:45AM 29.4353 -82.5969 347° North 472 543 31,900  Level Jacksonville Center
11:46AM 29.5647 -82.6014 358° North 467 537 31,900  Level Jacksonville Center
11:47AM 29.6983 -82.5914 North 467 537 32,000 480 Climbing Jacksonville Center
11:48AM 29.8422 -82.5836 North 467 537 32,900 420 Climbing Jacksonville Center
11:49AM 29.9697 -82.5783 North 467 537 32,900  Level Jacksonville Center
11:50AM 30.0886 -82.5756 North 462 532 32,900  Level Jacksonville Center
11:51AM 30.2203 -82.5681 North 457 526 32,900 780 Level Jacksonville Center
11:52AM 30.3433 -82.5628 North 457 526 34,500 960 Climbing Jacksonville Center
11:53AM 30.4686 -82.5550 North 452 520 34,900 180 Climbing Jacksonville Center
11:54AM 30.5897 -82.5378 North 446 513 34,900  Level Jacksonville Center
11:55AM 30.6958 -82.4675 30° Northeast 426 490 34,900  Level Jacksonville Center
11:56AM 30.8064 -82.4039 26° Northeast 431 496 34,900  Level Jacksonville Center
11:57AM 30.9167 -82.3428 25° Northeast 436 502 34,900  Level Jacksonville Center
11:58AM 31.0292 -82.2842 24° Northeast 436 502 34,900  Level Jacksonville Center
11:59AM 31.1439 -82.2250 24° Northeast 441 507 34,900  Level Jacksonville Center
12:00PM 31.2561 -82.1611 26° Northeast 441 507 35,000  Climbing Jacksonville Center
12:01PM 31.3686 -82.1017 24° Northeast 441 507 34,900 -60 Descending Jacksonville Center
12:02PM 31.4808 -82.0447 23° Northeast 441 507 34,900  Level Jacksonville Center
12:03PM 31.5892 -81.9803 27° Northeast 424 488 35,000  Climbing Jacksonville Center
12:04PM 31.7097 -81.9133 25° Northeast 424 488 35,000  Level Jacksonville Center
12:05PM 31.8094 -81.8608 24° Northeast 424 488 35,000  Level Jacksonville Center
12:06PM 31.9322 -81.7933 25° Northeast 424 488 35,000  Level Jacksonville Center
12:07PM 32.0444 -81.7333 24° Northeast 433 498 35,000  Level Jacksonville Center
12:08PM 32.1439 -81.6781 25° Northeast 440 506 35,000  Level Jacksonville Center
12:09PM 32.2686 -81.6100 25° Northeast 440 506 35,000  Level Jacksonville Center
12:10PM 32.3850 -81.5517 23° Northeast 440 506 35,000  Level Jacksonville Center
12:11PM 32.4953 -81.5281 10° North 435 501 35,000  Level Jacksonville Center
12:12PM 32.6331 -81.5308 359° North 441 507 35,000 -60 Level Jacksonville Center
12:13PM 32.7458 -81.5317 360° North 441 507 34,900 -60 Descending Jacksonville Center
12:14PM 32.8753 -81.5397 357° North 441 507 34,900  Level Jacksonville Center
12:15PM 33.0028 -81.5450 358° North 447 514 34,900  Level Jacksonville Center
12:16PM 33.1322 -81.5481 359° North 452 520 34,900  Level Jacksonville Center
12:17PM 33.2594 -81.5511 359° North 452 520 35,000 420 Climbing Jacksonville Center
12:18PM 33.3869 -81.5567 358° North 457 526 35,800 780 Climbing Jacksonville Center
12:19PM 33.5122 -81.5622 358° North 457 526 36,600 600 Climbing Jacksonville Center
12:20PM 33.6375 -81.5681 358° North 457 526 37,000 180 Climbing Jacksonville Center
12:21PM 33.7731 -81.5733 358° North 452 520 37,000  Level Jacksonville Center
12:23PM 34.0264 -81.5825 358° North 437 503 37,000  Level Atlanta Center
12:24PM 34.1497 -81.5864 359° North 442 509 37,000 -60 Level Atlanta Center
12:25PM 34.2856 -81.5950 357° North 442 509 36,900 -60 Descending Atlanta Center
12:26PM 34.4086 -81.5992 358° North 442 509 36,900  Level Atlanta Center
12:27PM 34.5319 -81.6031 359° North 442 509 37,000  Climbing Atlanta Center
12:28PM 34.6553 -81.6147 356° North 442 509 37,000  Level Atlanta Center
12:29PM 34.7825 -81.6186 359° North 447 514 37,000  Level Atlanta Center
12:30PM 34.9078 -81.6250 358° North 447 514 37,000  Level Atlanta Center
12:31PM 35.0353 -81.6314 358° North 449 517 37,000  Level Atlanta Center
12:32PM 35.1481 -81.6358 358° North 449 517 37,000  Level Atlanta Center
12:33PM 35.2756 -81.6397 359° North 449 517 37,000  Level Atlanta Center
12:34PM 35.4028 -81.6436 359° North 455 524 37,000  Level Atlanta Center
12:35PM 35.5303 -81.6528 357° North 455 524 37,000  Level Atlanta Center
12:36PM 35.6722 -81.6589 358° North 461 531 37,000  Level Atlanta Center
12:37PM 35.7975 -81.6603 359° North 455 524 37,000  Level Atlanta Center
12:38PM 35.9269 -81.6642 359° North 455 524 37,000  Level Atlanta Center
12:39PM 36.0519 -81.6553 North 455 524 37,000  Level Atlanta Center
12:40PM 36.1772 -81.6619 358° North 455 524 37,000  Level Atlanta Center
12:41PM 36.3083 -81.6606 360° North 462 532 37,000  Level Atlanta Center
12:42PM 36.4233 -81.6675 357° North 457 526 37,000  Level Atlanta Center
12:43PM 36.5528 -81.6742 358° North 463 533 37,000  Level Atlanta Center
12:45PM 36.7703 -81.6853 358° North 463 533 37,000  Level Indianapolis Center
12:46PM 36.8994 -81.6936 357° North 464 534 37,000  Level Indianapolis Center
12:47PM 37.0283 -81.7083 355° North 465 535 37,000  Level Indianapolis Center
12:48PM 37.1533 -81.7231 355° North 455 524 37,000  Level Indianapolis Center
12:49PM 37.3008 -81.7397 355° North 455 524 37,000  Level Indianapolis Center
12:50PM 37.4283 -81.7547 355° North 460 529 37,000  Level Indianapolis Center
12:51PM 37.5556 -81.7714 354° North 460 529 37,000  Level Indianapolis Center
12:52PM 37.6825 -81.7856 355° North 459 528 37,000  Level Indianapolis Center
12:53PM 37.8072 -81.7997 355° North 451 519 37,000  Level Indianapolis Center
12:54PM 37.9344 -81.8156 354° North 458 527 37,000  Level Indianapolis Center
12:55PM 38.0564 -81.8297 355° North 449 517 37,000 -300 Level Indianapolis Center
12:56PM 38.1811 -81.8444 355° North 448 516 36,400 -540 Descending Indianapolis Center
12:57PM 38.3325 -81.8636 354° North 453 521 36,000 -300 Descending Indianapolis Center
12:58PM 38.4600 -81.8803 354° North 455 524 35,800 -480 Descending Indianapolis Center
12:59PM 38.5861 -81.8944 355° North 451 519 35,100 -840 Descending Indianapolis Center
01:00PM 38.7100 -81.9097 355° North 443 510 34,200 -540 Descending Indianapolis Center
01:01PM 38.8350 -81.9250 355° North 445 512 34,000 -120 Descending Indianapolis Center
01:02PM 38.9592 -81.9400 355° North 443 510 34,000 -60 Level Indianapolis Center
01:03PM 39.0822 -81.9556 354° North 440 506 33,900 -180 Descending Indianapolis Center
01:04PM 39.2042 -81.9686 355° North 439 505 33,700 -960 Descending Indianapolis Center
01:05PM 39.3275 -81.9847 354° North 442 509 32,000 -1,860 Descending Indianapolis Center
01:06PM 39.4547 -82.0006 355° North 455 524 29,900 -2,100 Descending Indianapolis Center
01:07PM 39.5819 -82.0169 354° North 458 527 27,700 -2,340 Descending Indianapolis Center
01:08PM 39.7308 -82.0344 355° North 458 527 25,200 -2,100 Descending Indianapolis Center
01:09PM 39.8572 -82.0492 355° North 452 520 23,500 -1,740 Descending Indianapolis Center
01:10PM 39.9775 -82.0656 354° North 434 499 21,700 -1,740 Descending Indianapolis Center
01:11PM 40.0947 -82.0797 355° North 421 484 20,000 -1,380 Descending Indianapolis Center
01:12PM 40.2061 -82.0942 354° North 403 464 18,900 -540 Descending Indianapolis Center
01:13PM 40.3106 -82.1089 354° North 400 460 19,000 -300 Climbing Indianapolis Center
01:14PM 40.4217 -82.1225 355° North 397 457 18,300 -1,020 Descending Indianapolis Center
01:16PM 40.5472 -82.1392 354° North 385 443 17,000 -1,380 Descending Indianapolis Center
01:17PM 40.6525 -82.1544 354° North 378 435 15,500 -1,920 Descending Indianapolis Center
01:18PM 40.7575 -82.1578 359° North 379 436 13,100 -2,220 Descending Indianapolis Center
01:19PM 40.8406 -82.1228 18° North 363 418 11,200 -1,620 Descending Cleveland Center
01:20PM 40.9308 -82.0808 19° North 352 405 10,000 -600 Descending Cleveland Center
01:21PM 41.0025 -82.0167 34° Northeast 310 357 10,000  Level Cleveland Center
01:22PM 41.0642 -81.9242 48° Northeast 304 350 10,000 -360 Level Cleveland Center
01:23PM 41.1275 -81.8400 45° Northeast 317 365 9,300 -1,200 Descending Cleveland Center
01:24PM 41.1786 -81.7472 54° Northeast 312 359 7,600 -2,040 Descending Cleveland Center
01:25PM 41.2275 -81.6544 55° Northeast 301 346 5,300 -1,800 Descending Cleveland Center
01:26PM 41.2761 -81.5861 47° Northeast 291 335 4,000 -780 Descending Cleveland Center
01:27PM 41.3428 -81.5622 15° North 241 277 3,800 -420 Descending Cleveland Center
01:28PM 41.4050 -81.6242 323° Northwest 189 217 3,000 -540 Descending Cleveland Center